Time;durP1;ratioP1;P1;durP2;ratioP2;P2;SDS_P1;SDS_P2;PMS_P1;PMS_P2;Temp;Humidity;BMP_temperature;BMP_pressure;BME280_temperature;BME280_humidity;BME280_pressure;Samples;Min_cycle;Max_cycle;Signal;HPM_P1;HPM_P2
2021/11/01 00:01:11;;;;;;;14.23;12.83;;;21.70;51.20;;;;;;6175335;23;20391;-77
2021/11/01 00:03:37;;;;;;;16.03;14.37;;;21.70;51.20;;;;;;6175565;23;20176;-77
2021/11/01 00:06:10;;;;;;;17.83;15.30;;;21.70;51.30;;;;;;6176541;23;20402;-77
2021/11/01 00:08:37;;;;;;;15.13;13.70;;;21.70;51.20;;;;;;6175013;23;20383;-77
2021/11/01 00:11:04;;;;;;;15.90;14.40;;;21.70;51.20;;;;;;6176485;23;20380;-77
2021/11/01 00:13:33;;;;;;;14.80;13.30;;;21.70;51.20;;;;;;6176094;23;20368;-76
2021/11/01 00:15:59;;;;;;;15.73;14.23;;;21.70;51.20;;;;;;6175208;23;20388;-77
2021/11/01 00:18:58;;;;;;;15.17;13.57;;;21.70;51.30;;;;;;6175296;23;20427;-77
2021/11/01 00:21:34;;;;;;;15.17;13.20;;;21.70;51.30;;;;;;6174202;23;20372;-77
2021/11/01 00:24:03;;;;;;;15.50;13.90;;;21.70;51.30;;;;;;6174957;23;20456;-76
2021/11/01 00:26:32;;;;;;;14.93;13.40;;;21.70;51.40;;;;;;6150208;23;20383;-77
2021/11/01 00:29:06;;;;;;;14.77;13.30;;;21.70;51.00;;;;;;6151131;23;20394;-76
2021/11/01 00:31:33;;;;;;;15.17;13.10;;;21.70;51.40;;;;;;6174993;23;20380;-76
2021/11/01 00:34:00;;;;;;;14.70;13.13;;;21.70;51.40;;;;;;6174896;23;20384;-77
2021/11/01 00:36:28;;;;;;;15.33;13.83;;;21.70;51.40;;;;;;6176631;23;20439;-77
2021/11/01 00:38:56;;;;;;;14.37;13.00;;;21.70;51.40;;;;;;6175225;23;20427;-77
2021/11/01 00:41:25;;;;;;;14.83;13.33;;;21.70;51.50;;;;;;6175698;23;20377;-77
2021/11/01 00:47:13;;;;;;;15.63;13.90;;;21.70;51.50;;;;;;6176708;23;20403;-77
2021/11/01 00:49:39;;;;;;;14.03;12.63;;;21.70;51.60;;;;;;6176151;23;20855;-77
2021/11/01 00:52:05;;;;;;;14.87;13.30;;;21.70;51.60;;;;;;6174721;23;20376;-77
2021/11/01 00:54:37;;;;;;;15.73;14.00;;;21.70;51.60;;;;;;6175443;23;20364;-77
2021/11/01 00:57:06;;;;;;;14.47;12.87;;;21.70;51.60;;;;;;6175328;23;20396;-77
2021/11/01 00:59:32;;;;;;;14.80;13.30;;;21.70;51.60;;;;;;6175037;23;20412;-77
2021/11/01 01:01:58;;;;;;;15.07;13.43;;;21.70;51.60;;;;;;6175709;23;20368;-76
2021/11/01 01:04:24;;;;;;;13.67;12.30;;;21.70;51.60;;;;;;6173948;23;20149;-77
2021/11/01 01:06:50;;;;;;;13.80;12.50;;;21.70;51.60;;;;;;6174210;23;20240;-77
2021/11/01 01:09:16;;;;;;;15.17;13.77;;;21.70;51.60;;;;;;6149676;23;20459;-77
2021/11/01 01:11:42;;;;;;;15.47;13.93;;;21.70;51.70;;;;;;6174238;23;20384;-77
2021/11/01 01:14:09;;;;;;;14.30;12.80;;;21.70;51.70;;;;;;6176251;23;20670;-77
2021/11/01 01:16:42;;;;;;;14.27;12.77;;;21.70;51.70;;;;;;6176167;23;20372;-77
2021/11/01 01:19:16;;;;;;;14.43;13.00;;;21.70;51.70;;;;;;6175029;23;20479;-77
2021/11/01 01:24:27;;;;;;;14.33;13.03;;;21.70;51.80;;;;;;6176351;23;20355;-77
2021/11/01 01:26:53;;;;;;;14.10;12.63;;;21.70;51.80;;;;;;6175204;23;20373;-77
2021/11/01 01:29:18;;;;;;;14.87;13.47;;;21.70;51.80;;;;;;6175957;23;20372;-77
2021/11/01 01:31:44;;;;;;;15.13;13.50;;;21.70;51.80;;;;;;6175269;23;20160;-76
2021/11/01 01:34:10;;;;;;;14.63;13.23;;;21.70;51.80;;;;;;6176350;23;20208;-76
2021/11/01 01:36:35;;;;;;;14.17;12.37;;;21.70;51.80;;;;;;6176434;23;20163;-77
2021/11/01 01:39:03;;;;;;;14.07;12.67;;;21.70;51.90;;;;;;6173916;23;20203;-77
2021/11/01 01:41:29;;;;;;;14.50;13.00;;;21.70;51.90;;;;;;6175815;23;20145;-77
2021/11/01 01:43:58;;;;;;;14.47;13.13;;;21.70;51.90;;;;;;6174978;23;20377;-77
2021/11/01 01:46:26;;;;;;;13.50;12.20;;;21.70;51.90;;;;;;6175857;23;20168;-77
2021/11/01 01:48:54;;;;;;;13.40;12.10;;;21.70;51.90;;;;;;6175421;23;20375;-77
2021/11/01 01:51:22;;;;;;;12.90;11.70;;;21.70;51.90;;;;;;6174219;23;20415;-76
2021/11/01 01:53:50;;;;;;;13.00;11.70;;;21.70;51.90;;;;;;6174234;23;20379;-76
2021/11/01 01:56:16;;;;;;;13.77;11.50;;;21.70;52.00;;;;;;6174103;23;20380;-76
2021/11/01 01:58:47;;;;;;;12.97;11.73;;;21.70;52.00;;;;;;6149320;23;20451;-76
2021/11/01 02:01:15;;;;;;;13.57;12.17;;;21.70;52.00;;;;;;6198408;23;20411;-76
2021/11/01 02:03:45;;;;;;;12.63;11.33;;;21.70;52.00;;;;;;6175016;23;20407;-76
2021/11/01 02:06:37;;;;;;;13.77;12.37;;;21.70;52.00;;;;;;6173768;23;20403;-76
2021/11/01 02:09:12;;;;;;;12.40;11.10;;;21.70;52.00;;;;;;6173364;23;20402;-77
2021/11/01 02:11:57;;;;;;;12.43;11.13;;;21.70;52.00;;;;;;6173249;23;20398;-76
2021/11/01 02:14:31;;;;;;;12.77;11.30;;;21.70;52.00;;;;;;6173443;23;20384;-77
2021/11/01 02:17:00;;;;;;;12.90;11.70;;;21.70;52.00;;;;;;6174449;23;20364;-76
2021/11/01 02:19:36;;;;;;;13.33;12.10;;;21.70;52.10;;;;;;6173495;23;20427;-78
2021/11/01 02:22:08;;;;;;;12.80;11.30;;;21.70;52.00;;;;;;6175333;23;20360;-78
2021/11/01 02:24:55;;;;;;;13.07;11.87;;;21.70;52.60;;;;;;6148835;23;20403;-77
2021/11/01 02:27:23;;;;;;;12.20;11.10;;;21.70;52.00;;;;;;6175665;23;20395;-77
2021/11/01 02:29:50;;;;;;;13.20;10.73;;;21.70;52.10;;;;;;6174499;23;20383;-77
2021/11/01 02:32:17;;;;;;;12.90;11.67;;;21.70;52.10;;;;;;6175621;23;20403;-77
2021/11/01 02:34:43;;;;;;;12.43;11.30;;;21.70;52.10;;;;;;6175865;23;20391;-77
2021/11/01 02:37:10;;;;;;;12.73;11.43;;;21.70;52.10;;;;;;6174155;23;20384;-77
2021/11/01 02:39:55;;;;;;;13.37;12.07;;;21.70;52.10;;;;;;6175840;23;20420;-77
2021/11/01 02:42:23;;;;;;;12.10;10.90;;;21.70;52.10;;;;;;6151170;23;20372;-77
2021/11/01 02:45:03;;;;;;;12.43;11.20;;;21.70;52.10;;;;;;6175544;23;20432;-77
2021/11/01 02:47:30;;;;;;;12.77;11.47;;;21.70;52.70;;;;;;6176471;23;20364;-77
2021/11/01 02:49:58;;;;;;;11.63;10.43;;;21.70;52.10;;;;;;6173569;23;20395;-77
2021/11/01 02:52:25;;;;;;;12.13;10.90;;;21.70;52.10;;;;;;6173736;23;20391;-77
2021/11/01 02:54:52;;;;;;;12.23;10.93;;;21.70;52.10;;;;;;6173117;23;20387;-77
2021/11/01 02:57:17;;;;;;;12.17;10.97;;;21.70;52.10;;;;;;6173214;23;20479;-76
2021/11/01 02:59:43;;;;;;;11.90;10.73;;;21.70;52.10;;;;;;6173283;23;20420;-77
2021/11/01 03:02:48;;;;;;;11.83;10.63;;;21.70;52.20;;;;;;6172786;23;20501;-77
2021/11/01 03:05:17;;;;;;;12.73;10.93;;;21.70;52.10;;;;;;6174389;23;20363;-76
2021/11/01 03:07:46;;;;;;;13.30;12.00;;;21.70;52.30;;;;;;6172656;23;20470;-76
2021/11/01 03:10:12;;;;;;;11.97;10.70;;;21.70;52.30;;;;;;6172802;23;20412;-77
2021/11/01 03:12:40;;;;;;;11.40;10.30;;;21.70;52.30;;;;;;6174795;23;20368;-77
2021/11/01 03:15:08;;;;;;;12.00;10.83;;;21.70;52.30;;;;;;6174085;23;20156;-76
2021/11/01 03:17:39;;;;;;;11.60;10.50;;;21.70;52.30;;;;;;6172323;23;20419;-77
2021/11/01 03:20:07;;;;;;;11.83;10.77;;;21.70;52.30;;;;;;6172347;23;20376;-77
2021/11/01 03:22:39;;;;;;;12.17;11.00;;;21.70;52.30;;;;;;6174599;23;20376;-76
2021/11/01 03:25:15;;;;;;;11.40;10.30;;;21.70;52.30;;;;;;6147466;23;20388;-76
2021/11/01 03:27:46;;;;;;;11.70;10.50;;;21.70;52.30;;;;;;6171635;23;20387;-77
2021/11/01 03:30:15;;;;;;;10.20;9.10;;;21.70;52.40;;;;;;6174968;23;20839;-76
2021/11/01 03:32:41;;;;;;;11.50;10.40;;;21.70;52.40;;;;;;6174903;23;20396;-77
2021/11/01 03:35:08;;;;;;;11.43;10.33;;;21.70;52.40;;;;;;6174964;23;20420;-76
2021/11/01 03:37:35;;;;;;;11.23;10.13;;;21.70;52.40;;;;;;6175167;23;20188;-76
2021/11/01 03:40:01;;;;;;;10.40;9.40;;;21.70;52.40;;;;;;6174857;23;20395;-77
2021/11/01 03:42:31;;;;;;;11.80;10.63;;;21.70;52.40;;;;;;6175446;23;20380;-77
2021/11/01 03:45:04;;;;;;;11.23;10.13;;;21.70;52.40;;;;;;6174399;23;20380;-76
2021/11/01 03:47:37;;;;;;;11.60;10.50;;;21.70;52.40;;;;;;6175014;23;20380;-77
2021/11/01 03:50:14;;;;;;;11.30;10.10;;;21.70;52.40;;;;;;6175093;23;20383;-76
2021/11/01 03:52:42;;;;;;;10.97;9.87;;;21.70;52.40;;;;;;6175104;23;20419;-76
2021/11/01 03:55:08;;;;;;;10.90;9.90;;;21.70;52.40;;;;;;6150267;23;20379;-76
2021/11/01 03:57:35;;;;;;;10.40;9.40;;;21.70;52.40;;;;;;6175755;23;20423;-76
2021/11/01 04:00:05;;;;;;;10.50;9.50;;;21.70;52.50;;;;;;6174271;23;20407;-77
2021/11/01 04:02:31;;;;;;;11.93;10.63;;;21.70;52.50;;;;;;6174110;23;20386;-76
2021/11/01 04:05:00;;;;;;;10.63;9.67;;;21.70;52.50;;;;;;6175741;23;20379;-76
2021/11/01 04:07:26;;;;;;;11.20;10.10;;;21.70;52.50;;;;;;6175535;23;20407;-76
2021/11/01 04:09:52;;;;;;;11.10;10.00;;;21.70;52.50;;;;;;6150320;23;20383;-77
2021/11/01 04:12:17;;;;;;;10.77;9.80;;;21.70;52.50;;;;;;6175955;23;20147;-76
2021/11/01 04:14:50;;;;;;;11.20;10.00;;;21.70;52.50;;;;;;6174890;23;20386;-76
2021/11/01 04:17:25;;;;;;;10.57;9.57;;;21.70;52.50;;;;;;6175123;23;20145;-76
2021/11/01 04:20:11;;;;;;;10.80;9.77;;;21.70;52.50;;;;;;6175285;23;20380;-76
2021/11/01 04:22:38;;;;;;;11.13;10.07;;;21.70;52.50;;;;;;6149905;23;20403;-76
2021/11/01 04:25:05;;;;;;;10.30;9.40;;;21.70;52.60;;;;;;6174539;23;20407;-76
2021/11/01 04:27:31;;;;;;;10.40;9.40;;;21.70;52.60;;;;;;6151288;23;20399;-76
2021/11/01 04:29:59;;;;;;;11.37;10.20;;;21.70;52.60;;;;;;6174591;23;20407;-76
2021/11/01 04:32:33;;;;;;;10.03;9.03;;;21.70;52.60;;;;;;6174891;23;20184;-76
2021/11/01 04:35:05;;;;;;;10.27;9.27;;;21.70;52.60;;;;;;6174712;23;20376;-76
2021/11/01 04:37:31;;;;;;;9.70;8.80;;;21.70;52.60;;;;;;6149382;23;20489;-77
2021/11/01 04:40:15;;;;;;;11.37;9.90;;;21.70;52.60;;;;;;6174929;23;20384;-76
2021/11/01 04:53:43;;;;;;;9.57;8.67;;;21.60;52.60;;;;;;6175920;23;20383;-76
2021/11/01 04:56:11;;;;;;;10.33;9.23;;;21.70;52.70;;;;;;6149811;23;20387;-76
2021/11/01 04:58:41;;;;;;;10.10;9.20;;;21.60;52.60;;;;;;6175455;23;20792;-76
2021/11/01 05:01:07;;;;;;;10.23;9.23;;;21.70;52.70;;;;;;6174279;23;20411;-75
2021/11/01 05:03:41;;;;;;;10.20;9.20;;;21.70;52.70;;;;;;6175062;23;20372;-75
2021/11/01 05:06:08;;;;;;;10.63;9.53;;;21.70;52.70;;;;;;6174954;23;20164;-75
2021/11/01 05:08:44;;;;;;;10.13;9.23;;;21.70;52.70;;;;;;6174826;23;20388;-75
2021/11/01 05:11:22;;;;;;;9.70;8.80;;;21.70;52.70;;;;;;6174535;23;20753;-75
2021/11/01 05:13:57;;;;;;;9.83;8.90;;;21.60;52.70;;;;;;6176045;23;20380;-75
2021/11/01 05:16:41;;;;;;;10.97;9.87;;;21.60;52.70;;;;;;6175051;23;20843;-75
2021/11/01 05:19:20;;;;;;;8.83;8.03;;;21.60;52.70;;;;;;6175411;23;20804;-76
2021/11/01 05:22:01;;;;;;;9.30;8.47;;;21.60;52.70;;;;;;6174594;23;20376;-75
2021/11/01 05:24:36;;;;;;;8.67;7.87;;;21.60;52.70;;;;;;6176092;23;20811;-75
2021/11/01 05:29:35;;;;;;;9.03;8.13;;;21.70;52.70;;;;;;6186953;23;20364;-76
2021/11/01 05:32:12;;;;;;;9.00;8.30;;;21.60;52.70;;;;;;6174681;23;20392;-76
2021/11/01 05:34:37;;;;;;;9.53;8.63;;;21.70;52.70;;;;;;6152648;23;20698;-75
2021/11/01 05:37:04;;;;;;;8.93;8.03;;;21.70;52.70;;;;;;6174372;23;20458;-75
2021/11/01 05:39:30;;;;;;;9.47;8.57;;;21.70;52.70;;;;;;6174239;23;20215;-76
2021/11/01 05:41:55;;;;;;;10.00;9.07;;;21.70;52.70;;;;;;6175216;23;20725;-76
2021/11/01 05:44:21;;;;;;;8.77;7.87;;;21.70;52.70;;;;;;6175563;23;20427;-76
2021/11/01 05:46:50;;;;;;;10.00;9.00;;;21.70;52.70;;;;;;6175418;23;20587;-75
2021/11/01 05:49:19;;;;;;;8.40;7.60;;;21.70;52.70;;;;;;6174883;23;20172;-76
2021/11/01 05:51:44;;;;;;;9.33;8.53;;;21.70;52.60;;;;;;6149612;23;20459;-76
2021/11/01 05:54:14;;;;;;;8.53;7.63;;;21.70;52.60;;;;;;6175587;23;20368;-76
2021/11/01 05:59:22;;;;;;;9.27;8.37;;;21.80;52.70;;;;;;6185708;23;20716;-76
2021/11/01 06:04:46;;;;;;;8.90;8.00;;;21.80;52.70;;;;;;6175487;23;20362;-76
2021/11/01 06:15:04;;;;;;;7.80;7.10;;;21.80;52.70;;;;;;6174796;23;20363;-76
2021/11/01 06:17:32;;;;;;;8.07;7.37;;;21.80;52.70;;;;;;6175044;23;20372;-76
2021/11/01 06:19:59;;;;;;;9.00;8.10;;;21.80;52.70;;;;;;6172677;23;20384;-76
2021/11/01 06:22:25;;;;;;;8.37;7.60;;;21.80;52.70;;;;;;6173670;23;20843;-77
2021/11/01 06:24:52;;;;;;;8.63;7.80;;;21.80;52.70;;;;;;6174049;23;20725;-76
2021/11/01 06:27:21;;;;;;;8.07;7.20;;;21.80;53.20;;;;;;6174670;23;20368;-77
2021/11/01 06:29:59;;;;;;;8.07;7.27;;;21.80;52.60;;;;;;6174056;23;20468;-77
2021/11/01 06:43:17;;;;;;;7.97;7.17;;;21.80;53.20;;;;;;6175214;23;20424;-77
2021/11/01 06:51:09;;;;;;;8.23;7.47;;;21.80;52.70;;;;;;6175164;23;20359;-77
2021/11/01 07:15:49;;;;;;;7.57;6.60;;;21.90;52.80;;;;;;6084592;23;20382;-77
2021/11/01 07:18:20;;;;;;;8.27;7.47;;;21.90;52.80;;;;;;6154301;23;20746;-77
2021/11/01 08:22:58;;;;;;;7.23;6.57;;;21.90;52.90;;;;;;6177396;23;20356;-76
2021/11/01 08:42:27;;;;;;;7.10;6.40;;;21.90;52.90;;;;;;6186667;23;20361;-79
2021/11/01 09:20:21;;;;;;;6.47;5.87;;;21.90;53.00;;;;;;6149628;23;20428;-77
2021/11/01 09:36:48;;;;;;;6.63;5.93;;;22.00;53.00;;;;;;6149774;23;20364;-77
2021/11/01 09:39:42;;;;;;;6.37;5.77;;;22.00;53.10;;;;;;6150173;23;20423;-77
2021/11/01 09:42:08;;;;;;;6.17;5.57;;;22.00;53.00;;;;;;6150909;23;20366;-77
2021/11/01 09:44:35;;;;;;;5.63;5.20;;;22.00;53.10;;;;;;6125260;23;20422;-77
2021/11/01 09:47:07;;;;;;;6.33;5.73;;;22.00;53.00;;;;;;6174267;23;20384;-77
2021/11/01 09:49:34;;;;;;;6.07;5.47;;;22.00;53.60;;;;;;6179289;23;20384;-77
2021/11/01 09:52:06;;;;;;;6.40;5.80;;;22.00;53.00;;;;;;6179977;23;20368;-77
2021/11/01 09:54:37;;;;;;;5.87;5.27;;;22.00;53.00;;;;;;6180841;23;20352;-77
2021/11/01 09:57:22;;;;;;;5.53;5.10;;;22.00;53.00;;;;;;6155720;23;20376;-77
2021/11/01 09:59:56;;;;;;;5.90;5.40;;;22.00;53.00;;;;;;6180492;23;20396;-77
2021/11/01 10:02:27;;;;;;;6.13;5.53;;;22.00;53.00;;;;;;6180804;23;20383;-78
2021/11/01 10:04:54;;;;;;;5.90;5.40;;;22.00;53.00;;;;;;6179312;23;20238;-79
2021/11/01 10:07:44;;;;;;;5.10;4.63;;;22.00;53.00;;;;;;6179047;23;20388;-78
2021/11/01 10:10:12;;;;;;;6.10;5.50;;;22.00;53.00;;;;;;6179529;23;20364;-79
2021/11/01 10:12:47;;;;;;;5.70;5.20;;;22.00;53.00;;;;;;6180395;23;20368;-79
2021/11/01 10:18:17;;;;;;;5.70;5.20;;;22.10;53.10;;;;;;6179575;23;20390;-79
2021/11/01 10:20:49;;;;;;;5.70;5.10;;;22.00;53.00;;;;;;6154834;23;20380;-78
2021/11/01 10:23:36;;;;;;;6.23;5.63;;;22.00;53.00;;;;;;6178815;23;20392;-79
2021/11/01 10:26:29;;;;;;;5.67;5.17;;;22.10;53.10;;;;;;6179268;23;20368;-79
2021/11/01 10:29:09;;;;;;;5.70;5.20;;;22.10;53.10;;;;;;6179029;23;20373;-79
2021/11/01 10:31:46;;;;;;;5.93;5.37;;;22.00;53.00;;;;;;6180685;23;20364;-79
2021/11/01 10:34:14;;;;;;;5.60;5.10;;;22.00;53.00;;;;;;6154656;23;20364;-79
2021/11/01 10:36:42;;;;;;;5.43;4.93;;;22.00;53.00;;;;;;6180671;23;20360;-79
2021/11/01 10:39:27;;;;;;;5.50;5.00;;;22.00;53.00;;;;;;6180355;23;20412;-79
2021/11/01 10:42:30;;;;;;;5.27;4.80;;;22.00;53.00;;;;;;6179069;23;20386;-80
2021/11/01 10:45:19;;;;;;;5.40;4.90;;;22.10;53.10;;;;;;6135486;23;20371;-79
2021/11/01 11:13:12;;;;;;;5.23;4.73;;;22.00;53.10;;;;;;6179534;23;20339;-80
2021/11/01 11:15:40;;;;;;;6.47;5.20;;;22.10;53.20;;;;;;6154004;23;20388;-79
2021/11/01 11:18:24;;;;;;;5.37;4.87;;;22.10;53.20;;;;;;6179293;23;20415;-78
2021/11/01 11:21:14;;;;;;;5.27;4.77;;;22.10;53.70;;;;;;6178856;23;20431;-80
2021/11/01 11:24:28;;;;;;;5.70;5.10;;;22.10;53.20;;;;;;6154709;23;20369;-79
2021/11/01 11:29:35;;;;;;;5.40;4.90;;;22.10;53.20;;;;;;6180494;23;20368;-80
2021/11/01 11:32:18;;;;;;;5.10;4.60;;;22.10;53.20;;;;;;6179656;23;20378;-80
2021/11/01 11:40:36;;;;;;;5.00;4.50;;;22.10;53.20;;;;;;6190770;23;20332;-78
2021/11/01 11:49:10;;;;;;;5.33;4.50;;;22.10;53.30;;;;;;6181043;23;20359;-78
2021/11/01 11:51:39;;;;;;;5.50;4.57;;;22.10;53.20;;;;;;6155098;23;20402;-79
2021/11/01 11:54:09;;;;;;;4.97;4.47;;;22.10;53.20;;;;;;6181269;23;20379;-78
2021/11/01 11:56:39;;;;;;;5.03;4.50;;;22.10;53.20;;;;;;6179989;23;20387;-78
2021/11/01 11:59:10;;;;;;;6.97;4.67;;;22.10;53.20;;;;;;6181354;23;20475;-79
2021/11/01 12:01:52;;;;;;;4.93;3.90;;;22.10;53.20;;;;;;6181092;23;20383;-78
2021/11/01 12:04:33;;;;;;;5.30;4.40;;;22.10;53.10;;;;;;6182256;23;20375;-78
2021/11/01 12:07:02;;;;;;;4.90;4.40;;;22.10;53.20;;;;;;6157329;23;20368;-79
2021/11/01 12:09:45;;;;;;;5.40;4.83;;;22.10;53.20;;;;;;6181219;23;20396;-79
2021/11/01 12:13:23;;;;;;;4.53;4.13;;;22.10;53.20;;;;;;6181577;23;20387;-78
2021/11/01 12:17:52;;;;;;;4.67;4.13;;;22.10;53.30;;;;;;6182797;23;20418;-78
2021/11/01 12:20:22;;;;;;;4.90;4.40;;;22.10;53.20;;;;;;6183285;23;20388;-78
2021/11/01 12:22:50;;;;;;;5.60;4.87;;;22.10;53.20;;;;;;6180998;23;20388;-79
2021/11/01 12:25:20;;;;;;;4.53;4.10;;;22.10;53.80;;;;;;6156604;23;20460;-78
2021/11/01 12:28:02;;;;;;;4.50;4.10;;;22.10;53.20;;;;;;6180879;23;20391;-79
2021/11/01 12:30:42;;;;;;;4.43;3.70;;;22.20;53.30;;;;;;6157259;23;20407;-78
2021/11/01 12:33:09;;;;;;;4.80;4.30;;;22.10;53.20;;;;;;6181875;23;20368;-78
2021/11/01 12:35:42;;;;;;;4.10;3.70;;;22.10;53.20;;;;;;6181801;23;20376;-79
2021/11/01 12:38:14;;;;;;;4.33;3.93;;;22.10;53.20;;;;;;6181804;23;20411;-79
2021/11/01 12:57:04;;;;;;;4.30;3.90;;;22.10;53.20;;;;;;6181759;23;20376;-80
2021/11/01 12:59:43;;;;;;;3.80;3.50;;;22.10;53.20;;;;;;6180073;23;20467;-79
2021/11/01 13:02:13;;;;;;;4.80;3.60;;;22.10;53.20;;;;;;6181099;23;20368;-79
2021/11/01 13:04:40;;;;;;;5.13;3.80;;;22.10;53.20;;;;;;6180842;23;20363;-80
2021/11/01 13:07:19;;;;;;;4.40;4.00;;;22.10;53.20;;;;;;6181794;23;20712;-79
2021/11/01 13:09:52;;;;;;;4.50;3.67;;;22.10;53.20;;;;;;6181624;23;20375;-79
2021/11/01 13:18:05;;;;;;;5.77;4.33;;;22.10;53.20;;;;;;6188419;23;20133;-75
2021/11/01 13:20:31;;;;;;;4.30;3.80;;;22.10;53.20;;;;;;6178638;23;20376;-76
2021/11/01 13:23:00;;;;;;;4.60;4.00;;;22.10;53.30;;;;;;6177601;23;20518;-75
2021/11/01 13:40:08;;;;;;;4.40;3.43;;;22.10;53.30;;;;;;6187215;23;20443;-77
2021/11/01 13:42:35;;;;;;;4.80;4.30;;;22.10;53.30;;;;;;6178348;23;20364;-76
2021/11/01 13:45:16;;;;;;;4.30;3.87;;;22.10;53.30;;;;;;6151960;23;20384;-76
2021/11/01 13:47:54;;;;;;;5.07;3.50;;;22.10;53.30;;;;;;6176600;23;20369;-76
2021/11/01 13:50:25;;;;;;;4.10;3.70;;;22.10;53.30;;;;;;6177252;23;20373;-76
2021/11/01 13:53:12;;;;;;;5.00;3.40;;;22.10;53.30;;;;;;6177007;23;20404;-76
2021/11/01 13:58:24;;;;;;;4.93;3.77;;;22.10;53.30;;;;;;6176781;23;20443;-77
2021/11/01 14:11:30;;;;;;;4.33;3.90;;;22.10;53.30;;;;;;6178762;23;20355;-76
2021/11/01 14:16:33;;;;;;;4.10;3.70;;;22.10;53.30;;;;;;6178355;23;20443;-76
2021/11/01 14:33:15;;;;;;;3.90;3.50;;;22.10;53.40;;;;;;6178262;23;20403;-79
2021/11/01 15:13:47;;;;;;;4.40;4.00;;;22.10;53.50;;;;;;6176503;23;20375;-79
2021/11/01 15:24:47;;;;;;;3.73;3.37;;;22.10;53.50;;;;;;6177036;23;20387;-78
2021/11/01 15:32:43;;;;;;;3.20;2.90;;;22.10;53.50;;;;;;6179734;23;20380;-78
2021/11/01 16:19:19;;;;;;;2.97;2.67;;;22.10;53.60;;;;;;6177766;23;20398;-78
2021/11/01 16:21:48;;;;;;;3.53;2.83;;;22.10;53.70;;;;;;6178278;23;20372;-79
2021/11/01 16:24:14;;;;;;;3.00;2.73;;;22.10;53.60;;;;;;6176941;23;20468;-79
2021/11/01 16:26:42;;;;;;;3.47;3.17;;;22.10;53.60;;;;;;6175915;23;20380;-79
2021/11/01 16:29:11;;;;;;;3.53;3.20;;;22.10;53.60;;;;;;6179685;23;20360;-79
2021/11/01 16:34:21;;;;;;;3.60;3.00;;;22.10;53.50;;;;;;6176533;23;20404;-79
2021/11/01 16:39:54;;;;;;;3.40;3.10;;;22.10;53.50;;;;;;6186665;23;20419;-79
2021/11/01 16:42:22;;;;;;;3.53;3.03;;;22.10;53.50;;;;;;6176230;23;20404;-80
2021/11/01 16:44:49;;;;;;;3.10;2.60;;;22.10;53.50;;;;;;6176255;23;20383;-79
2021/11/01 16:47:16;;;;;;;3.00;2.70;;;22.10;53.50;;;;;;6174955;23;20407;-79
2021/11/01 16:49:50;;;;;;;3.10;2.80;;;22.10;53.50;;;;;;6174856;23;20459;-79
2021/11/01 16:52:20;;;;;;;2.97;2.67;;;22.10;53.50;;;;;;6126852;23;20415;-79
2021/11/01 16:54:57;;;;;;;3.27;2.80;;;22.10;53.50;;;;;;6176069;23;20376;-79
2021/11/01 16:57:40;;;;;;;3.17;2.87;;;22.10;53.50;;;;;;6175007;23;20383;-79
2021/11/01 17:00:20;;;;;;;3.37;3.07;;;22.10;53.50;;;;;;6153199;23;20364;-79
2021/11/01 17:24:32;;;;;;;2.93;2.73;;;22.10;53.50;;;;;;6188193;23;20383;-80
2021/11/01 17:27:17;;;;;;;3.03;2.73;;;22.10;53.50;;;;;;6176501;23;20392;-79
2021/11/01 18:51:25;;;;;;;2.40;2.20;;;22.10;53.60;;;;;;6177287;23;20416;-79
2021/11/01 18:54:15;;;;;;;2.60;2.40;;;22.10;53.70;;;;;;6176958;23;20823;-79
2021/11/01 18:56:47;;;;;;;3.10;2.80;;;22.10;53.70;;;;;;6155747;23;20400;-79
2021/11/01 18:59:17;;;;;;;2.50;2.30;;;22.10;53.70;;;;;;6152254;23;20416;-78
2021/11/01 19:04:34;;;;;;;2.57;2.37;;;22.10;53.70;;;;;;6187280;23;20360;-78
2021/11/01 19:15:47;;;;;;;2.63;2.43;;;22.00;53.70;;;;;;6120860;23;20374;-78
2021/11/01 20:03:12;;;;;;;2.40;2.10;;;21.90;53.90;;;;;;6176447;23;20398;-79
2021/11/01 20:05:32;;;;;;;2.40;2.20;;;21.90;54.00;;;;;;6176155;23;20410;-79
2021/11/01 21:25:30;;;;;;;4.93;2.60;;;21.90;53.90;;;;;;6176549;23;20356;-77
2021/11/01 21:27:57;;;;;;;3.30;2.33;;;21.90;53.90;;;;;;6175133;23;20380;-77
2021/11/01 21:30:29;;;;;;;3.30;2.73;;;21.90;53.80;;;;;;6176982;23;20408;-77
2021/11/01 21:32:55;;;;;;;3.53;2.60;;;21.90;53.80;;;;;;6175580;23;20408;-77
2021/11/01 21:35:27;;;;;;;3.33;2.47;;;21.90;53.80;;;;;;6174935;23;20411;-77
2021/11/01 21:37:53;;;;;;;5.57;2.30;;;21.90;53.70;;;;;;6175730;23;20208;-76
2021/11/01 21:40:19;;;;;;;3.80;2.47;;;21.90;53.70;;;;;;6176446;23;20376;-77
2021/11/01 21:42:45;;;;;;;2.77;2.40;;;21.90;53.70;;;;;;6177073;23;20428;-77
2021/11/01 21:45:11;;;;;;;3.10;2.20;;;21.90;53.60;;;;;;6152168;23;20384;-77
2021/11/01 21:47:39;;;;;;;2.80;2.43;;;21.90;53.60;;;;;;6151781;23;20720;-76
2021/11/01 21:50:06;;;;;;;4.23;2.53;;;21.90;53.60;;;;;;6175509;23;20475;-76
2021/11/01 21:52:36;;;;;;;3.10;2.60;;;21.90;53.50;;;;;;6176605;23;20379;-75
2021/11/01 21:55:05;;;;;;;6.60;2.70;;;21.90;53.50;;;;;;6175670;23;20479;-76
2021/11/01 21:57:42;;;;;;;2.30;2.10;;;21.90;53.50;;;;;;6176131;23;20471;-76
2021/11/01 22:00:38;;;;;;;3.73;2.30;;;21.90;53.50;;;;;;6175458;23;20380;-75
2021/11/01 22:17:13;;;;;;;2.90;2.40;;;21.80;53.30;;;;;;6181016;23;20441;-80
2021/11/01 22:20:42;;;;;;;4.63;3.00;;;21.80;53.30;;;;;;6179565;23;20420;-80
2021/11/01 22:25:42;;;;;;;3.47;2.27;;;21.80;53.30;;;;;;6190969;23;20376;-80
2021/11/01 22:33:41;;;;;;;3.53;2.37;;;21.80;53.30;;;;;;6180771;23;20367;-80
2021/11/01 22:57:47;;;;;;;3.90;2.30;;;22.20;52.20;;;;;;5103594;28;20474;-77
2021/11/01 23:00:19;;;;;;;2.80;2.20;;;22.10;52.30;;;;;;5112913;28;20400;-79
2021/11/01 23:02:58;;;;;;;2.97;2.30;;;22.00;52.40;;;;;;5095159;28;20426;-78
2021/11/01 23:33:21;;;;;;;3.27;2.00;;;21.90;53.40;;;;;;5029086;28;20430;-77
2021/11/01 23:35:51;;;;;;;1.90;1.60;;;21.80;53.40;;;;;;5029320;28;20470;-77
2021/11/01 23:38:17;;;;;;;2.80;2.30;;;21.80;53.30;;;;;;5013352;28;20423;-76
2021/11/01 23:40:44;;;;;;;2.53;2.10;;;21.90;53.40;;;;;;5012984;28;20427;-77
2021/11/01 23:43:13;;;;;;;2.47;2.10;;;21.90;53.40;;;;;;5029175;28;20427;-77
2021/11/01 23:45:44;;;;;;;2.87;1.77;;;21.90;53.40;;;;;;5067287;28;20436;-77
2021/11/01 23:48:11;;;;;;;2.80;1.90;;;21.90;53.40;;;;;;5079923;28;20466;-77
2021/11/01 23:50:37;;;;;;;2.30;2.10;;;21.90;53.50;;;;;;5097281;28;20419;-76
2021/11/01 23:53:16;;;;;;;3.30;1.90;;;21.90;53.50;;;;;;5079825;28;20408;-76
2021/11/01 23:55:43;;;;;;;2.20;1.77;;;21.90;53.50;;;;;;5097665;28;20424;-77
2021/11/01 23:58:09;;;;;;;4.30;1.90;;;21.90;53.50;;;;;;5079542;28;20421;-76
